Time;durP1;ratioP1;P1;durP2;ratioP2;P2;SDS_P1;SDS_P2;PMS_P1;PMS_P2;Temp;Humidity;BMP_temperature;BMP_pressure;BME280_temperature;BME280_humidity;BME280_pressure;Samples;Min_cycle;Max_cycle;Signal;HPM_P1;HPM_P2
2021/10/30 00:01:23;;;;;;;38.92;34.75;;;7.90;1.00;;;;;;5115158;27;20295;-87
2021/10/30 00:03:52;;;;;;;37.67;33.45;;;7.90;1.00;;;;;;5110292;27;20239;-87
2021/10/30 00:06:19;;;;;;;38.53;34.53;;;7.80;1.00;;;;;;5115362;27;20240;-86
2021/10/30 00:08:46;;;;;;;39.00;34.88;;;7.80;1.00;;;;;;5120029;27;20231;-87
2021/10/30 00:11:13;;;;;;;37.50;33.72;;;7.70;1.00;;;;;;5113252;27;20338;-86
2021/10/30 00:13:40;;;;;;;39.78;35.63;;;7.80;1.00;;;;;;5114599;27;20231;-86
2021/10/30 00:16:10;;;;;;;37.75;33.85;;;7.70;1.00;;;;;;5109036;27;20211;-87
2021/10/30 00:18:40;;;;;;;38.65;34.65;;;7.70;1.00;;;;;;5103995;27;20311;-87
2021/10/30 00:21:08;;;;;;;41.00;35.28;;;7.70;1.00;;;;;;5106507;27;20221;-87
2021/10/30 00:23:35;;;;;;;45.33;40.03;;;7.70;1.00;;;;;;5104128;27;20246;-86
2021/10/30 00:26:02;;;;;;;41.45;36.72;;;7.60;1.00;;;;;;5109798;27;20234;-86
2021/10/30 00:28:29;;;;;;;41.22;36.72;;;7.70;1.00;;;;;;5121323;27;20220;-86
2021/10/30 00:30:56;;;;;;;39.70;35.60;;;7.60;1.00;;;;;;5128190;27;20224;-87
2021/10/30 00:33:23;;;;;;;38.22;34.33;;;7.60;1.00;;;;;;5106308;27;20223;-87
2021/10/30 00:35:50;;;;;;;39.72;35.55;;;7.70;1.00;;;;;;5106975;27;20228;-87
2021/10/30 00:38:18;;;;;;;40.80;36.40;;;7.70;1.00;;;;;;5105785;27;20294;-87
2021/10/30 00:40:45;;;;;;;39.65;35.50;;;7.70;1.00;;;;;;5104167;27;20288;-86
2021/10/30 00:43:12;;;;;;;41.45;35.05;;;7.60;1.00;;;;;;5109506;27;20256;-87
2021/10/30 00:45:39;;;;;;;40.28;36.00;;;7.50;1.00;;;;;;5104428;27;20232;-86
2021/10/30 00:48:06;;;;;;;42.67;38.08;;;7.50;1.00;;;;;;5111659;27;20234;-86
2021/10/30 00:50:41;;;;;;;39.85;35.40;;;7.50;1.00;;;;;;5129610;27;20240;-87
2021/10/30 00:53:08;;;;;;;39.45;35.15;;;7.50;1.00;;;;;;5141627;27;20210;-87
2021/10/30 00:55:40;;;;;;;41.42;36.65;;;7.50;1.00;;;;;;5109333;27;20219;-86
2021/10/30 00:58:09;;;;;;;41.40;36.95;;;7.50;1.00;;;;;;5106580;27;20225;-86
2021/10/30 01:00:36;;;;;;;41.75;35.50;;;7.50;1.00;;;;;;5102952;27;20236;-86
2021/10/30 01:03:03;;;;;;;41.25;36.92;;;7.50;1.00;;;;;;5105649;27;20230;-87
2021/10/30 01:05:30;;;;;;;41.60;37.25;;;7.40;1.00;;;;;;5109224;27;20222;-86
2021/10/30 01:07:57;;;;;;;41.13;36.50;;;7.40;1.00;;;;;;5102304;27;20227;-87
2021/10/30 01:10:28;;;;;;;39.90;35.50;;;7.30;1.00;;;;;;5108929;27;20498;-86
2021/10/30 01:12:57;;;;;;;40.88;35.88;;;7.30;1.00;;;;;;5109379;27;21566;-87
2021/10/30 01:15:24;;;;;;;42.78;37.67;;;7.20;1.00;;;;;;5109918;27;20328;-86
2021/10/30 01:17:51;;;;;;;44.92;37.30;;;7.20;1.00;;;;;;5113870;27;20322;-87
2021/10/30 01:20:24;;;;;;;41.90;36.97;;;7.20;1.00;;;;;;5115414;27;20706;-87
2021/10/30 01:22:51;;;;;;;45.25;38.33;;;7.20;1.00;;;;;;5115080;27;20646;-88
2021/10/30 01:25:23;;;;;;;41.00;36.70;;;7.20;1.00;;;;;;5125839;27;20223;-88
2021/10/30 01:27:51;;;;;;;44.67;38.25;;;7.10;1.00;;;;;;5106992;27;20221;-88
2021/10/30 01:30:25;;;;;;;40.28;36.08;;;7.10;1.00;;;;;;5104576;27;20236;-87
2021/10/30 01:32:54;;;;;;;40.20;35.65;;;7.10;1.00;;;;;;5102303;27;20315;-85
2021/10/30 01:35:30;;;;;;;40.13;36.00;;;7.10;1.00;;;;;;5108282;27;20281;-87
2021/10/30 01:37:58;;;;;;;43.80;38.65;;;7.10;1.00;;;;;;5110473;27;20214;-85
2021/10/30 01:40:25;;;;;;;41.70;37.30;;;7.00;1.00;;;;;;5108917;27;20230;-86
2021/10/30 01:43:00;;;;;;;43.17;37.78;;;7.00;1.00;;;;;;5123685;27;20701;-86
2021/10/30 01:45:28;;;;;;;45.10;40.10;;;6.90;1.00;;;;;;5105782;27;20311;-86
2021/10/30 01:47:56;;;;;;;40.45;36.08;;;6.80;1.00;;;;;;5118490;27;20199;-86
2021/10/30 01:50:23;;;;;;;42.17;37.72;;;6.70;1.00;;;;;;5139252;27;20308;-86
2021/10/30 01:52:52;;;;;;;43.33;38.70;;;6.70;1.00;;;;;;5120860;27;20238;-86
2021/10/30 01:55:22;;;;;;;42.17;37.20;;;6.60;1.00;;;;;;5103553;27;20218;-86
2021/10/30 01:57:50;;;;;;;41.75;37.38;;;6.60;1.00;;;;;;5100433;27;20280;-86
2021/10/30 02:00:17;;;;;;;45.13;38.97;;;6.50;1.00;;;;;;5101192;27;20223;-86
2021/10/30 02:02:44;;;;;;;44.38;36.05;;;6.50;1.00;;;;;;5102304;27;20219;-86
2021/10/30 02:05:13;;;;;;;43.00;38.25;;;6.50;1.00;;;;;;5097356;27;20223;-85
2021/10/30 02:07:40;;;;;;;43.47;37.35;;;6.50;1.00;;;;;;5102955;27;20300;-85
2021/10/30 02:10:11;;;;;;;44.13;38.05;;;6.50;1.00;;;;;;5101969;27;20239;-86
2021/10/30 02:12:39;;;;;;;43.47;35.60;;;6.50;1.00;;;;;;5100000;27;20225;-86
2021/10/30 02:15:07;;;;;;;42.38;37.70;;;6.50;1.00;;;;;;5103904;27;20235;-86
2021/10/30 02:17:34;;;;;;;41.78;37.47;;;6.50;1.00;;;;;;5103838;27;20227;-86
2021/10/30 02:20:01;;;;;;;41.67;36.70;;;6.50;1.00;;;;;;5107257;27;20234;-86
2021/10/30 02:22:28;;;;;;;40.30;35.70;;;6.50;1.00;;;;;;5100674;27;20319;-86
2021/10/30 02:24:55;;;;;;;40.47;36.08;;;6.50;1.00;;;;;;5110124;27;20229;-86
2021/10/30 02:27:23;;;;;;;42.25;36.97;;;6.50;1.00;;;;;;5102886;27;20223;-86
2021/10/30 02:29:51;;;;;;;39.88;35.58;;;6.50;1.00;;;;;;5093298;27;20401;-86
2021/10/30 02:32:17;;;;;;;40.85;36.35;;;6.60;1.00;;;;;;5094910;27;20218;-86
2021/10/30 02:34:45;;;;;;;39.30;35.25;;;6.60;1.00;;;;;;5103636;27;20345;-86
2021/10/30 02:37:12;;;;;;;42.55;36.05;;;6.60;1.00;;;;;;5106284;27;20412;-86
2021/10/30 02:39:39;;;;;;;38.67;34.25;;;6.70;1.00;;;;;;5125018;27;20234;-85
2021/10/30 02:42:07;;;;;;;39.85;34.72;;;6.70;1.00;;;;;;5124422;27;20351;-86
2021/10/30 02:44:35;;;;;;;40.47;36.10;;;6.70;1.00;;;;;;5104484;27;20282;-86
2021/10/30 02:47:04;;;;;;;40.60;36.08;;;6.60;1.00;;;;;;5107522;27;20226;-85
2021/10/30 02:49:32;;;;;;;40.55;36.15;;;6.60;1.00;;;;;;5135583;27;20269;-85
2021/10/30 02:52:00;;;;;;;41.03;34.75;;;6.50;1.00;;;;;;5118041;27;20222;-86
2021/10/30 02:54:27;;;;;;;39.45;35.42;;;6.50;1.00;;;;;;5102577;27;20230;-86
2021/10/30 02:56:54;;;;;;;42.38;35.30;;;6.50;1.00;;;;;;5100876;27;20227;-86
2021/10/30 02:59:21;;;;;;;41.65;35.55;;;6.50;1.00;;;;;;5103328;27;20268;-87
2021/10/30 03:01:49;;;;;;;38.08;34.08;;;6.50;1.00;;;;;;5100525;27;21067;-87
2021/10/30 03:04:16;;;;;;;41.47;34.35;;;6.50;1.00;;;;;;5102733;27;20215;-87
2021/10/30 03:06:43;;;;;;;40.72;36.38;;;6.60;1.00;;;;;;5103092;27;20219;-85
2021/10/30 03:09:10;;;;;;;39.60;35.22;;;6.50;1.00;;;;;;5102882;27;20227;-87
2021/10/30 03:11:37;;;;;;;41.22;36.05;;;6.60;1.00;;;;;;5101972;27;20240;-87
2021/10/30 03:14:04;;;;;;;37.80;33.47;;;6.60;1.00;;;;;;5102215;27;20231;-87
2021/10/30 03:16:31;;;;;;;37.67;33.60;;;6.60;1.00;;;;;;5104646;27;20226;-86
2021/10/30 03:18:59;;;;;;;40.05;35.85;;;6.60;1.00;;;;;;5101735;27;20236;-87
2021/10/30 03:21:26;;;;;;;37.22;31.92;;;6.60;1.00;;;;;;5100959;27;20332;-86
2021/10/30 03:23:53;;;;;;;40.15;35.85;;;6.50;1.00;;;;;;5100780;27;20964;-86
2021/10/30 03:26:20;;;;;;;37.97;33.88;;;6.50;1.00;;;;;;5101347;27;20223;-87
2021/10/30 03:28:47;;;;;;;37.17;32.92;;;6.50;1.00;;;;;;5104288;27;20224;-87
2021/10/30 03:31:14;;;;;;;39.13;33.92;;;6.50;1.00;;;;;;5109821;27;20310;-86
2021/10/30 03:33:41;;;;;;;38.70;34.53;;;6.50;1.00;;;;;;5108329;27;20229;-86
2021/10/30 03:36:09;;;;;;;38.95;34.75;;;6.50;1.00;;;;;;5113638;27;20224;-86
2021/10/30 03:38:37;;;;;;;36.50;32.40;;;6.50;1.00;;;;;;5106658;27;20219;-87
2021/10/30 03:41:04;;;;;;;39.72;34.83;;;6.50;1.00;;;;;;5106225;27;20219;-87
2021/10/30 03:43:31;;;;;;;34.80;31.13;;;6.50;1.00;;;;;;5113281;27;21135;-87
2021/10/30 03:45:58;;;;;;;38.03;33.92;;;6.50;1.00;;;;;;5118654;27;24236;-87
2021/10/30 03:48:26;;;;;;;36.80;33.03;;;6.60;1.00;;;;;;5124578;27;20219;-86
2021/10/30 03:50:52;;;;;;;36.92;32.70;;;6.60;1.00;;;;;;5146384;27;20237;-87
2021/10/30 03:53:21;;;;;;;38.58;32.13;;;6.50;1.00;;;;;;5137346;27;20219;-87
2021/10/30 03:55:48;;;;;;;38.92;32.72;;;6.50;1.00;;;;;;5135126;27;21539;-86
2021/10/30 03:58:16;;;;;;;36.45;32.63;;;6.40;1.00;;;;;;5111424;27;20219;-87
2021/10/30 04:00:43;;;;;;;35.88;31.98;;;6.50;1.00;;;;;;5105201;27;20436;-87
2021/10/30 04:03:11;;;;;;;38.30;33.25;;;6.50;1.00;;;;;;5103521;27;20272;-87
2021/10/30 04:05:38;;;;;;;35.33;31.45;;;6.40;1.00;;;;;;5110190;27;20230;-87
2021/10/30 04:08:07;;;;;;;39.67;32.90;;;6.50;1.00;;;;;;5107520;27;20230;-87
2021/10/30 04:10:35;;;;;;;37.45;33.45;;;6.50;1.00;;;;;;5102352;27;20235;-87
2021/10/30 04:13:03;;;;;;;36.70;32.78;;;6.50;1.00;;;;;;5107267;27;20225;-86
2021/10/30 04:15:29;;;;;;;36.97;33.10;;;6.50;1.00;;;;;;5108124;27;20603;-87
2021/10/30 04:17:56;;;;;;;40.00;33.13;;;6.50;1.00;;;;;;5104335;27;20226;-87
2021/10/30 04:20:23;;;;;;;34.45;30.75;;;6.50;1.00;;;;;;5106648;27;20218;-87
2021/10/30 04:22:50;;;;;;;36.38;32.47;;;6.60;1.00;;;;;;5109545;27;20896;-87
2021/10/30 04:25:17;;;;;;;36.13;31.15;;;6.60;1.00;;;;;;5114253;27;20227;-88
2021/10/30 04:27:46;;;;;;;36.35;31.98;;;6.60;1.00;;;;;;5117908;27;21110;-87
2021/10/30 04:30:13;;;;;;;35.25;31.65;;;6.50;1.00;;;;;;5113906;27;20289;-87
2021/10/30 04:32:42;;;;;;;36.08;32.25;;;6.50;1.00;;;;;;5121234;27;20242;-87
2021/10/30 04:35:11;;;;;;;36.60;32.90;;;6.50;1.00;;;;;;5119221;27;20273;-87
2021/10/30 04:37:39;;;;;;;34.78;31.08;;;6.40;1.00;;;;;;5127271;27;20224;-87
2021/10/30 04:40:07;;;;;;;37.00;31.33;;;6.40;1.00;;;;;;5105651;27;20219;-88
2021/10/30 04:42:34;;;;;;;38.50;34.40;;;6.40;1.00;;;;;;5105805;27;20465;-87
2021/10/30 04:45:04;;;;;;;35.33;30.42;;;6.40;1.00;;;;;;5108787;27;20243;-86
2021/10/30 04:47:31;;;;;;;35.00;31.20;;;6.50;1.00;;;;;;5122554;27;20299;-86
2021/10/30 04:49:58;;;;;;;37.67;30.77;;;6.50;1.00;;;;;;5143385;27;20260;-85
2021/10/30 04:52:25;;;;;;;41.20;33.17;;;6.50;1.00;;;;;;5139903;27;20218;-85
2021/10/30 04:54:52;;;;;;;34.10;30.40;;;6.50;1.00;;;;;;5126544;27;20361;-86
2021/10/30 04:57:19;;;;;;;35.08;31.23;;;6.50;1.00;;;;;;5110270;27;20223;-85
2021/10/30 04:59:46;;;;;;;33.90;30.27;;;6.40;1.00;;;;;;5107392;27;20227;-86
2021/10/30 05:02:14;;;;;;;35.83;31.30;;;6.40;1.00;;;;;;5110283;27;20226;-86
2021/10/30 05:04:41;;;;;;;35.40;31.65;;;6.30;1.00;;;;;;5104947;27;21128;-86
2021/10/30 05:07:07;;;;;;;35.92;31.75;;;6.40;1.00;;;;;;5136431;27;20210;-87
2021/10/30 05:09:34;;;;;;;34.80;30.67;;;6.30;1.00;;;;;;5137489;27;20199;-86
2021/10/30 05:12:01;;;;;;;35.13;31.25;;;6.30;1.00;;;;;;5143545;27;20236;-86
2021/10/30 05:14:28;;;;;;;33.75;30.15;;;6.40;1.00;;;;;;5141761;27;20215;-87
2021/10/30 05:16:55;;;;;;;33.88;30.23;;;6.30;1.00;;;;;;5135319;27;20862;-86
2021/10/30 05:19:23;;;;;;;33.00;29.15;;;6.40;1.00;;;;;;5117130;27;20227;-86
2021/10/30 05:21:50;;;;;;;36.05;29.23;;;6.30;1.00;;;;;;5108057;27;20227;-86
2021/10/30 05:24:20;;;;;;;29.05;25.95;;;6.40;1.00;;;;;;5101800;27;20262;-86
2021/10/30 05:26:47;;;;;;;33.75;29.17;;;6.40;1.00;;;;;;5109176;27;20322;-87
2021/10/30 05:29:14;;;;;;;33.20;29.60;;;6.40;1.00;;;;;;5105053;27;20713;-87
2021/10/30 05:31:41;;;;;;;40.72;31.10;;;6.40;1.00;;;;;;5102316;27;20237;-86
2021/10/30 05:34:07;;;;;;;30.50;27.33;;;6.40;1.00;;;;;;5101608;27;20223;-87
2021/10/30 05:36:37;;;;;;;33.55;29.77;;;6.40;1.00;;;;;;5113389;27;20249;-86
2021/10/30 05:39:11;;;;;;;32.90;28.85;;;6.40;1.00;;;;;;5111520;27;20317;-86
2021/10/30 05:41:38;;;;;;;32.80;28.05;;;6.40;1.00;;;;;;5107749;27;22061;-86
2021/10/30 05:44:06;;;;;;;32.58;29.25;;;6.40;1.00;;;;;;5113120;27;20322;-87
2021/10/30 05:46:33;;;;;;;32.90;29.50;;;6.50;1.00;;;;;;5124952;27;20211;-86
2021/10/30 05:49:00;;;;;;;32.50;29.02;;;6.50;1.00;;;;;;5141580;27;20223;-86
2021/10/30 05:51:27;;;;;;;33.05;29.55;;;6.50;1.00;;;;;;5112479;27;20246;-86
2021/10/30 05:53:55;;;;;;;31.02;27.65;;;6.50;1.00;;;;;;5103304;27;20223;-86
2021/10/30 05:56:22;;;;;;;34.13;30.63;;;6.50;1.00;;;;;;5106002;27;20658;-86
2021/10/30 05:58:49;;;;;;;33.17;29.58;;;6.50;1.00;;;;;;5106011;27;20227;-87
2021/10/30 06:01:16;;;;;;;32.00;28.65;;;6.50;1.00;;;;;;5119888;27;20938;-86
2021/10/30 06:03:43;;;;;;;31.25;27.75;;;6.50;1.00;;;;;;5107985;27;20269;-86
2021/10/30 06:06:10;;;;;;;32.35;29.00;;;6.50;1.00;;;;;;5112539;27;20227;-86
2021/10/30 06:08:37;;;;;;;34.90;30.17;;;6.40;1.00;;;;;;5112175;27;20264;-86
2021/10/30 06:11:06;;;;;;;31.00;27.80;;;6.40;1.00;;;;;;5111264;27;20238;-86
2021/10/30 06:13:33;;;;;;;31.30;27.95;;;6.40;1.00;;;;;;5111574;27;21136;-86
2021/10/30 06:16:04;;;;;;;33.13;29.38;;;6.40;1.00;;;;;;5114328;27;20722;-86
2021/10/30 06:18:40;;;;;;;33.53;29.73;;;6.40;1.00;;;;;;5143981;27;20230;-87
2021/10/30 06:21:07;;;;;;;34.00;29.42;;;6.40;1.00;;;;;;5137980;27;20230;-86
2021/10/30 06:23:35;;;;;;;33.70;30.02;;;6.40;1.00;;;;;;5144759;27;20207;-86
2021/10/30 06:26:02;;;;;;;34.92;31.20;;;6.40;1.00;;;;;;5136403;27;20232;-86
2021/10/30 06:28:31;;;;;;;35.80;30.73;;;6.40;1.00;;;;;;5112834;27;20233;-86
2021/10/30 06:30:58;;;;;;;33.70;30.23;;;6.50;1.00;;;;;;5104180;27;21211;-86
2021/10/30 06:33:26;;;;;;;34.55;30.42;;;6.50;1.00;;;;;;5107726;27;20230;-87
2021/10/30 06:35:53;;;;;;;31.05;27.75;;;6.60;1.00;;;;;;5108895;27;20228;-86
2021/10/30 06:38:22;;;;;;;32.20;28.73;;;6.60;1.00;;;;;;5107233;27;20431;-86
2021/10/30 06:40:49;;;;;;;31.70;28.30;;;6.60;1.00;;;;;;5107078;27;20222;-86
2021/10/30 06:43:16;;;;;;;31.98;28.00;;;6.60;1.00;;;;;;5114179;27;21373;-86
2021/10/30 06:45:49;;;;;;;35.50;28.70;;;6.70;1.00;;;;;;5104653;27;22005;-87
2021/10/30 06:48:16;;;;;;;30.40;27.15;;;6.70;1.00;;;;;;5106899;27;20231;-88
2021/10/30 06:51:36;;;;;;;28.65;25.73;;;6.80;1.00;;;;;;5107886;27;20759;-86
2021/10/30 06:54:03;;;;;;;28.77;24.98;;;6.80;1.00;;;;;;5054455;27;20211;-86
2021/10/30 06:56:30;;;;;;;31.27;27.92;;;6.80;1.00;;;;;;5107343;27;20234;-85
2021/10/30 06:58:57;;;;;;;30.17;27.08;;;6.90;1.00;;;;;;5116747;27;20237;-87
2021/10/30 07:01:26;;;;;;;31.63;27.40;;;6.90;1.00;;;;;;5133210;27;20226;-87
2021/10/30 07:03:53;;;;;;;32.58;29.38;;;6.90;1.00;;;;;;5121031;27;20272;-85
2021/10/30 07:06:25;;;;;;;29.85;26.65;;;7.00;1.00;;;;;;5113277;27;20233;-85
2021/10/30 07:08:56;;;;;;;31.20;26.30;;;7.00;1.00;;;;;;5113180;27;20222;-86
2021/10/30 07:11:23;;;;;;;29.50;26.40;;;7.10;1.00;;;;;;5114008;27;20311;-87
2021/10/30 07:13:50;;;;;;;29.20;26.15;;;7.20;1.00;;;;;;5125850;27;20353;-86
2021/10/30 07:16:17;;;;;;;28.75;25.77;;;7.20;1.00;;;;;;5135905;27;20227;-84
2021/10/30 07:18:46;;;;;;;28.75;25.70;;;7.30;1.00;;;;;;5140231;27;20242;-84
2021/10/30 07:21:14;;;;;;;29.92;26.73;;;7.40;1.00;;;;;;5131332;27;20224;-85
2021/10/30 07:23:44;;;;;;;31.65;28.55;;;7.50;1.00;;;;;;5126694;27;21024;-85
2021/10/30 07:26:11;;;;;;;30.15;25.95;;;7.50;1.00;;;;;;5116860;27;20210;-85
2021/10/30 07:28:39;;;;;;;29.15;26.05;;;7.60;1.00;;;;;;5116443;27;20228;-86
2021/10/30 07:31:06;;;;;;;28.02;24.98;;;7.80;1.00;;;;;;5113603;27;20799;-86
2021/10/30 07:33:33;;;;;;;33.15;29.23;;;7.90;1.00;;;;;;5115208;27;20220;-86
2021/10/30 07:36:01;;;;;;;29.85;25.75;;;8.00;1.00;;;;;;5121994;27;20766;-87
2021/10/30 07:38:28;;;;;;;29.35;26.35;;;8.20;1.00;;;;;;5121072;27;20221;-86
2021/10/30 07:40:55;;;;;;;29.95;26.80;;;8.30;1.00;;;;;;5110981;27;20653;-77
2021/10/30 07:43:22;;;;;;;30.02;26.45;;;8.50;1.00;;;;;;5106091;27;20228;-78
2021/10/30 07:45:48;;;;;;;26.83;24.33;;;8.70;1.00;;;;;;5112046;27;20220;-77
2021/10/30 07:48:15;;;;;;;29.67;26.65;;;8.70;1.00;;;;;;5114678;27;20272;-79
2021/10/30 07:50:42;;;;;;;26.58;23.73;;;8.80;1.00;;;;;;5107468;27;20248;-81
2021/10/30 07:53:10;;;;;;;30.33;26.42;;;8.90;1.00;;;;;;5107458;27;20243;-80
2021/10/30 07:55:36;;;;;;;27.77;24.98;;;9.00;1.00;;;;;;5110822;27;20228;-80
2021/10/30 07:58:03;;;;;;;29.55;26.55;;;9.20;1.00;;;;;;5106378;27;20219;-79
2021/10/30 08:00:30;;;;;;;28.20;25.27;;;9.30;1.00;;;;;;5112433;27;20314;-79
2021/10/30 08:02:57;;;;;;;28.17;25.10;;;9.40;1.00;;;;;;5113079;27;20454;-80
2021/10/30 08:05:24;;;;;;;28.60;25.27;;;9.50;1.00;;;;;;5115891;27;20456;-81
2021/10/30 08:07:51;;;;;;;27.53;24.83;;;9.60;1.00;;;;;;5115046;27;20210;-80
2021/10/30 08:10:19;;;;;;;26.83;24.00;;;9.70;1.00;;;;;;5115654;27;20458;-81
2021/10/30 08:12:46;;;;;;;27.43;24.70;;;9.80;1.00;;;;;;5123878;27;20437;-81
2021/10/30 08:15:13;;;;;;;25.93;23.33;;;10.00;1.00;;;;;;5115030;27;20516;-81
2021/10/30 08:17:39;;;;;;;25.53;22.93;;;10.30;1.00;;;;;;5112695;27;21029;-80
2021/10/30 08:20:07;;;;;;;27.50;24.90;;;10.50;1.00;;;;;;5129795;27;20541;-79
2021/10/30 08:22:34;;;;;;;25.77;23.03;;;10.60;1.00;;;;;;5136148;27;20454;-81
2021/10/30 08:25:01;;;;;;;26.13;23.40;;;10.60;1.00;;;;;;5110073;27;20416;-80
2021/10/30 08:27:29;;;;;;;24.80;22.20;;;10.60;1.00;;;;;;5108026;27;20490;-82
2021/10/30 08:29:56;;;;;;;23.57;21.27;;;10.60;1.00;;;;;;5105359;27;20591;-79
2021/10/30 08:32:22;;;;;;;26.30;23.60;;;10.70;1.00;;;;;;5102996;27;21061;-80
2021/10/30 08:34:49;;;;;;;25.20;22.47;;;10.80;1.00;;;;;;5114890;27;20578;-80
2021/10/30 08:37:16;;;;;;;27.30;22.60;;;10.90;1.00;;;;;;5110947;27;20429;-81
2021/10/30 08:39:42;;;;;;;23.93;21.43;;;11.00;1.00;;;;;;5111208;27;21090;-81
2021/10/30 08:42:10;;;;;;;26.67;23.83;;;11.00;1.00;;;;;;5110905;27;21085;-80
2021/10/30 08:44:40;;;;;;;23.73;21.10;;;11.00;1.00;;;;;;5116102;27;20425;-80
2021/10/30 08:47:07;;;;;;;24.37;21.77;;;11.00;1.00;;;;;;5108729;27;20642;-81
2021/10/30 08:49:36;;;;;;;23.53;21.13;;;11.00;1.00;;;;;;5114474;27;20556;-81
2021/10/30 08:52:04;;;;;;;25.53;22.87;;;11.10;1.00;;;;;;5116065;27;21337;-80
2021/10/30 08:54:30;;;;;;;25.93;22.97;;;11.20;1.00;;;;;;5110639;27;21357;-78
2021/10/30 08:56:57;;;;;;;24.13;21.83;;;11.40;1.00;;;;;;5109371;27;20445;-79
2021/10/30 08:59:43;;;;;;;26.07;21.97;;;11.50;1.00;;;;;;5105871;27;21537;-78
2021/10/30 09:02:25;;;;;;;25.23;22.73;;;11.60;1.00;;;;;;5105700;27;20484;-79
2021/10/30 09:05:07;;;;;;;22.60;20.50;;;11.70;1.00;;;;;;5106036;27;20543;-79
2021/10/30 09:07:35;;;;;;;22.43;20.30;;;11.90;1.00;;;;;;5106093;27;20504;-79
2021/10/30 09:10:02;;;;;;;25.03;22.40;;;12.40;1.00;;;;;;5105736;27;20453;-79
2021/10/30 09:12:29;;;;;;;23.90;21.40;;;13.40;1.00;;;;;;5112252;27;21005;-80
2021/10/30 09:14:58;;;;;;;23.43;20.67;;;14.40;1.00;;;;;;5107324;27;20477;-79
2021/10/30 09:17:25;;;;;;;23.60;21.27;;;14.40;1.00;;;;;;5103896;27;20432;-80
2021/10/30 09:19:54;;;;;;;25.63;23.03;;;14.10;1.00;;;;;;5103367;27;20465;-80
2021/10/30 09:22:23;;;;;;;24.00;21.60;;;13.80;1.00;;;;;;5105125;27;20486;-80
2021/10/30 09:24:58;;;;;;;23.70;21.10;;;13.60;1.00;;;;;;5105358;27;20477;-79
2021/10/30 09:27:47;;;;;;;20.67;18.70;;;13.40;1.00;;;;;;5116379;27;20464;-80
2021/10/30 09:30:16;;;;;;;22.63;20.50;;;13.20;1.00;;;;;;5122719;27;20453;-79
2021/10/30 09:32:51;;;;;;;22.13;20.10;;;13.10;1.00;;;;;;5106014;27;20566;-80
2021/10/30 09:35:22;;;;;;;22.63;20.33;;;13.10;1.00;;;;;;5103181;27;20992;-79
2021/10/30 09:37:49;;;;;;;23.50;20.37;;;13.00;1.00;;;;;;5103931;27;20584;-80
2021/10/30 09:40:17;;;;;;;23.50;21.40;;;13.10;1.00;;;;;;5109353;27;20508;-79
2021/10/30 09:42:45;;;;;;;21.53;19.53;;;13.10;1.00;;;;;;5103819;27;20441;-80
2021/10/30 09:45:14;;;;;;;22.10;20.10;;;13.00;1.00;;;;;;5104441;27;20418;-79
2021/10/30 09:47:44;;;;;;;21.17;19.17;;;13.10;1.00;;;;;;5109521;27;20528;-79
2021/10/30 09:50:24;;;;;;;21.47;19.20;;;13.10;1.00;;;;;;5102006;27;20445;-78
2021/10/30 09:52:51;;;;;;;21.10;19.00;;;13.10;1.00;;;;;;5104954;27;21646;-79
2021/10/30 09:55:23;;;;;;;21.13;19.10;;;13.20;1.00;;;;;;5102672;27;20457;-79
2021/10/30 09:57:59;;;;;;;22.43;19.87;;;13.30;1.00;;;;;;5105380;27;20456;-80
2021/10/30 10:00:27;;;;;;;21.80;19.80;;;13.40;1.00;;;;;;5102045;27;20456;-78
2021/10/30 10:02:57;;;;;;;22.33;20.20;;;13.60;1.00;;;;;;5102615;27;20446;-79
2021/10/30 10:05:25;;;;;;;21.03;19.03;;;13.70;1.00;;;;;;5101470;27;20405;-79
2021/10/30 10:07:54;;;;;;;21.40;19.20;;;13.90;1.00;;;;;;5106333;27;20427;-79
2021/10/30 10:10:22;;;;;;;21.83;19.73;;;14.10;1.00;;;;;;5098911;27;20444;-80
2021/10/30 10:12:51;;;;;;;20.70;18.87;;;14.40;1.00;;;;;;5100625;27;20465;-79
2021/10/30 10:15:21;;;;;;;21.23;19.20;;;14.40;1.00;;;;;;5099276;27;21047;-78
2021/10/30 10:17:50;;;;;;;22.93;19.77;;;14.20;1.00;;;;;;5100833;27;20487;-79
2021/10/30 10:20:16;;;;;;;19.97;18.00;;;14.00;1.00;;;;;;5109842;27;20465;-79
2021/10/30 10:22:44;;;;;;;21.53;19.20;;;14.10;1.00;;;;;;5111601;27;20439;-78
2021/10/30 10:25:28;;;;;;;22.00;19.80;;;14.00;1.00;;;;;;5112475;27;21011;-79
2021/10/30 10:27:56;;;;;;;19.93;18.07;;;14.10;1.00;;;;;;5114329;27;20453;-79
2021/10/30 10:30:23;;;;;;;22.17;19.53;;;14.10;1.00;;;;;;5112657;27;20457;-79
2021/10/30 10:32:51;;;;;;;21.87;19.60;;;14.20;1.00;;;;;;5125635;27;20484;-78
2021/10/30 10:35:19;;;;;;;23.53;21.23;;;14.10;1.00;;;;;;5110329;27;20446;-79
2021/10/30 10:37:49;;;;;;;22.37;20.07;;;14.20;1.00;;;;;;5107214;27;20448;-79
2021/10/30 10:40:31;;;;;;;21.07;18.97;;;14.30;1.00;;;;;;5104202;27;20629;-79
2021/10/30 10:42:58;;;;;;;20.70;18.50;;;14.40;1.00;;;;;;5106849;27;21060;-79
2021/10/30 10:45:24;;;;;;;19.73;17.70;;;14.40;1.00;;;;;;5102319;27;20455;-78
2021/10/30 10:48:03;;;;;;;23.43;20.10;;;14.50;1.00;;;;;;5102716;27;20454;-78
2021/10/30 10:50:37;;;;;;;20.30;18.20;;;14.50;1.00;;;;;;5104095;27;20445;-79
2021/10/30 10:53:16;;;;;;;19.80;17.90;;;14.50;1.00;;;;;;5109268;27;20405;-79
2021/10/30 10:56:07;;;;;;;19.00;17.30;;;14.50;1.00;;;;;;5107886;27;20420;-80
2021/10/30 10:59:13;;;;;;;22.27;19.40;;;14.60;1.00;;;;;;5113938;27;20532;-79
2021/10/30 11:02:03;;;;;;;19.87;18.00;;;14.80;1.00;;;;;;5112369;27;21091;-78
2021/10/30 11:04:31;;;;;;;21.30;19.30;;;15.00;1.00;;;;;;5109549;27;20460;-79
2021/10/30 11:07:17;;;;;;;20.73;18.87;;;15.30;1.00;;;;;;5115301;27;20459;-79
2021/10/30 11:09:56;;;;;;;22.20;16.73;;;15.70;1.00;;;;;;5108771;27;20442;-80
2021/10/30 11:12:25;;;;;;;20.50;18.67;;;16.30;1.00;;;;;;5107061;27;20596;-79
2021/10/30 11:14:57;;;;;;;18.87;17.20;;;17.00;1.00;;;;;;5103737;27;20452;-79
2021/10/30 11:17:25;;;;;;;16.67;15.17;;;17.80;1.00;;;;;;5104333;27;20461;-77
2021/10/30 11:19:53;;;;;;;20.80;18.83;;;18.80;1.00;;;;;;5100149;27;20446;-80
2021/10/30 11:22:23;;;;;;;18.27;16.57;;;19.20;1.00;;;;;;5102752;27;20444;-80
2021/10/30 11:24:53;;;;;;;19.30;17.40;;;19.20;1.00;;;;;;5108542;27;20462;-80
2021/10/30 11:27:20;;;;;;;19.30;17.47;;;19.20;1.00;;;;;;5100904;27;20475;-80
2021/10/30 11:29:52;;;;;;;19.90;17.90;;;19.10;1.00;;;;;;5094612;27;20451;-80
2021/10/30 11:32:21;;;;;;;19.50;17.70;;;19.50;1.00;;;;;;5117627;27;20452;-79
2021/10/30 11:34:54;;;;;;;18.63;16.87;;;20.20;1.00;;;;;;5112427;27;20450;-79
2021/10/30 11:37:21;;;;;;;22.23;18.50;;;20.40;1.00;;;;;;5094191;27;21050;-78
2021/10/30 11:39:50;;;;;;;18.80;17.07;;;20.60;1.00;;;;;;5093258;27;21338;-79
2021/10/30 11:42:17;;;;;;;19.27;17.53;;;20.80;1.00;;;;;;5097917;27;20457;-79
2021/10/30 11:44:54;;;;;;;18.50;16.87;;;20.80;1.00;;;;;;5104868;27;20402;-80
2021/10/30 11:47:23;;;;;;;18.70;17.20;;;20.90;1.00;;;;;;5107201;27;20453;-81
2021/10/30 11:49:57;;;;;;;18.77;17.07;;;21.00;1.00;;;;;;5102162;27;20414;-79
2021/10/30 11:52:26;;;;;;;17.40;15.87;;;21.80;1.00;;;;;;5109554;27;20462;-80
2021/10/30 11:55:01;;;;;;;18.40;16.70;;;22.70;1.00;;;;;;5102786;27;20459;-79
2021/10/30 11:57:29;;;;;;;18.00;16.40;;;24.00;1.00;;;;;;5107950;27;20464;-80
2021/10/30 12:00:01;;;;;;;18.73;17.00;;;24.00;1.00;;;;;;5108773;27;20457;-80
2021/10/30 12:02:31;;;;;;;18.27;16.47;;;24.30;1.00;;;;;;5106746;27;20451;-80
2021/10/30 12:05:13;;;;;;;21.07;18.93;;;25.20;1.00;;;;;;5107618;27;20446;-80
2021/10/30 12:07:41;;;;;;;18.23;16.63;;;25.30;1.00;;;;;;5124641;27;21346;-81
2021/10/30 12:10:11;;;;;;;16.67;15.23;;;25.00;1.00;;;;;;5109188;27;20501;-82
2021/10/30 12:12:37;;;;;;;18.33;16.57;;;25.60;1.00;;;;;;5106431;27;20523;-80
2021/10/30 12:15:06;;;;;;;19.53;17.70;;;25.40;1.00;;;;;;5108494;27;21824;-81
2021/10/30 12:17:36;;;;;;;20.00;17.90;;;25.40;1.00;;;;;;5104367;27;20459;-81
2021/10/30 12:20:05;;;;;;;19.53;17.77;;;25.50;1.00;;;;;;5109390;27;21088;-80
2021/10/30 12:22:39;;;;;;;18.77;17.13;;;25.00;1.00;;;;;;5106002;27;20432;-81
2021/10/30 12:25:08;;;;;;;19.70;17.83;;;24.30;1.00;;;;;;5116798;27;21234;-81
2021/10/30 12:27:36;;;;;;;20.57;18.60;;;23.70;1.00;;;;;;5112698;27;20462;-81
2021/10/30 12:30:09;;;;;;;18.93;17.33;;;23.10;1.00;;;;;;5107488;27;20557;-81
2021/10/30 12:32:41;;;;;;;18.83;17.10;;;23.30;1.00;;;;;;5110727;27;20476;-80
2021/10/30 12:35:08;;;;;;;17.87;16.23;;;24.00;1.00;;;;;;5129695;27;20452;-80
2021/10/30 12:37:39;;;;;;;18.47;16.77;;;24.20;1.00;;;;;;5115546;27;20492;-80
2021/10/30 12:40:07;;;;;;;19.70;17.23;;;23.70;1.00;;;;;;5101468;27;20446;-79
2021/10/30 12:42:34;;;;;;;19.93;17.97;;;23.00;1.00;;;;;;5102609;27;20531;-80
2021/10/30 12:45:06;;;;;;;20.17;18.00;;;22.10;1.00;;;;;;5099649;27;20994;-79
2021/10/30 12:47:35;;;;;;;20.93;18.93;;;21.00;1.00;;;;;;5102532;27;20469;-80
2021/10/30 12:50:05;;;;;;;18.20;16.60;;;20.70;1.00;;;;;;5103341;27;20456;-80
2021/10/30 12:52:44;;;;;;;24.53;22.17;;;20.50;1.00;;;;;;5106651;27;20429;-79